sensor_id;sensor_type;location;lat;lon;timestamp;pressure;altitude;pressure_sealevel;temperature;humidity
28927;BME280;16038;47.692;9.400;2022-09-09T00:00:43;96418.97;;;13.17;100.00
28927;BME280;16038;47.692;9.400;2022-09-09T00:03:23;96420.16;;;13.30;100.00
28927;BME280;16038;47.692;9.400;2022-09-09T00:11:13;96414.97;;;12.78;100.00
28927;BME280;16038;47.692;9.400;2022-09-09T00:13:48;96411.38;;;12.63;100.00
28927;BME280;16038;47.692;9.400;2022-09-09T00:16:22;96414.88;;;12.50;100.00
28927;BME280;16038;47.692;9.400;2022-09-09T00:21:26;96418.38;;;12.43;100.00
28927;BME280;16038;47.692;9.400;2022-09-09T00:23:57;96409.75;;;12.48;100.00
28927;BME280;16038;47.692;9.400;2022-09-09T00:26:47;96411.72;;;12.51;100.00
28927;BME280;16038;47.692;9.400;2022-09-09T00:29:16;96412.97;;;12.68;100.00
28927;BME280;16038;47.692;9.400;2022-09-09T00:31:44;96414.19;;;12.85;100.00
28927;BME280;16038;47.692;9.400;2022-09-09T00:34:13;96409.09;;;12.94;100.00
28927;BME280;16038;47.692;9.400;2022-09-09T00:36:40;96406.34;;;12.94;100.00
28927;BME280;16038;47.692;9.400;2022-09-09T00:39:12;96413.06;;;13.04;100.00
28927;BME280;16038;47.692;9.400;2022-09-09T00:42:05;96405.63;;;13.15;100.00
28927;BME280;16038;47.692;9.400;2022-09-09T00:44:37;96411.53;;;13.25;100.00
28927;BME280;16038;47.692;9.400;2022-09-09T00:47:15;96412.31;;;13.29;100.00
28927;BME280;16038;47.692;9.400;2022-09-09T00:55:45;96404.06;;;13.11;100.00
28927;BME280;16038;47.692;9.400;2022-09-09T00:58:13;96405.63;;;13.15;100.00
28927;BME280;16038;47.692;9.400;2022-09-09T01:00:44;96404.06;;;13.22;100.00
28927;BME280;16038;47.692;9.400;2022-09-09T01:06:02;96402.88;;;13.15;100.00
28927;BME280;16038;47.692;9.400;2022-09-09T01:08:52;96396.19;;;13.06;100.00
28927;BME280;16038;47.692;9.400;2022-09-09T01:13:53;96395.66;;;12.53;100.00
28927;BME280;16038;47.692;9.400;2022-09-09T01:16:21;96398.44;;;12.60;100.00
28927;BME280;16038;47.692;9.400;2022-09-09T01:18:49;96393.72;;;12.61;100.00
28927;BME280;16038;47.692;9.400;2022-09-09T01:24:16;96391.66;;;12.36;100.00
28927;BME280;16038;47.692;9.400;2022-09-09T01:26:45;96393.66;;;12.47;100.00
28927;BME280;16038;47.692;9.400;2022-09-09T01:29:13;96383.50;;;12.58;100.00
28927;BME280;16038;47.692;9.400;2022-09-09T01:34:23;96379.97;;;12.61;100.00
28927;BME280;16038;47.692;9.400;2022-09-09T01:37:05;96385.88;;;12.63;100.00
28927;BME280;16038;47.692;9.400;2022-09-09T01:39:33;96381.53;;;12.66;100.00
28927;BME280;16038;47.692;9.400;2022-09-09T01:42:00;96379.63;;;12.70;100.00
28927;BME280;16038;47.692;9.400;2022-09-09T01:44:27;96380.41;;;12.74;100.00
28927;BME280;16038;47.692;9.400;2022-09-09T01:46:53;96369.41;;;12.74;100.00
28927;BME280;16038;47.692;9.400;2022-09-09T01:49:18;96365.50;;;12.71;100.00
28927;BME280;16038;47.692;9.400;2022-09-09T01:51:47;96363.84;;;12.52;100.00
28927;BME280;16038;47.692;9.400;2022-09-09T01:54:14;96367.63;;;12.19;100.00
28927;BME280;16038;47.692;9.400;2022-09-09T02:01:55;96377.34;;;11.98;100.00
28927;BME280;16038;47.692;9.400;2022-09-09T02:04:54;96377.03;;;12.11;100.00
28927;BME280;16038;47.692;9.400;2022-09-09T02:07:42;96371.59;;;12.21;100.00
28927;BME280;16038;47.692;9.400;2022-09-09T02:10:23;96368.06;;;12.21;100.00
28927;BME280;16038;47.692;9.400;2022-09-09T02:13:02;96380.59;;;12.18;100.00
28927;BME280;16038;47.692;9.400;2022-09-09T02:15:35;96372.75;;;12.20;100.00
28927;BME280;16038;47.692;9.400;2022-09-09T02:18:07;96372.13;;;11.86;100.00
28927;BME280;16038;47.692;9.400;2022-09-09T02:20:43;96375.78;;;12.01;100.00
28927;BME280;16038;47.692;9.400;2022-09-09T02:23:11;96377.41;;;12.13;100.00
28927;BME280;16038;47.692;9.400;2022-09-09T02:25:39;96377.00;;;12.07;100.00
28927;BME280;16038;47.692;9.400;2022-09-09T02:28:07;96379.44;;;12.19;100.00
28927;BME280;16038;47.692;9.400;2022-09-09T02:30:37;96390.06;;;12.32;100.00
28927;BME280;16038;47.692;9.400;2022-09-09T02:33:06;96396.34;;;12.32;100.00
28927;BME280;16038;47.692;9.400;2022-09-09T02:35:32;96405.34;;;12.26;100.00
28927;BME280;16038;47.692;9.400;2022-09-09T02:38:06;96410.47;;;12.31;100.00
28927;BME280;16038;47.692;9.400;2022-09-09T02:40:32;96407.69;;;12.27;100.00
28927;BME280;16038;47.692;9.400;2022-09-09T02:42:58;96413.16;;;12.23;100.00
28927;BME280;16038;47.692;9.400;2022-09-09T02:45:39;96423.00;;;12.28;100.00
28927;BME280;16038;47.692;9.400;2022-09-09T02:48:18;96419.03;;;12.22;100.00
28927;BME280;16038;47.692;9.400;2022-09-09T02:50:57;96421.38;;;12.16;100.00
28927;BME280;16038;47.692;9.400;2022-09-09T02:53:40;96424.25;;;11.82;100.00
28927;BME280;16038;47.692;9.400;2022-09-09T02:56:20;96428.22;;;11.85;100.00
28927;BME280;16038;47.692;9.400;2022-09-09T02:58:46;96419.50;;;11.72;100.00
28927;BME280;16038;47.692;9.400;2022-09-09T03:01:12;96425.97;;;11.50;100.00
28927;BME280;16038;47.692;9.400;2022-09-09T03:03:39;96424.53;;;11.66;100.00
28927;BME280;16038;47.692;9.400;2022-09-09T03:06:06;96432.50;;;11.82;100.00
28927;BME280;16038;47.692;9.400;2022-09-09T03:08:32;96434.16;;;11.91;100.00
28927;BME280;16038;47.692;9.400;2022-09-09T03:10:59;96436.94;;;11.98;100.00
28927;BME280;16038;47.692;9.400;2022-09-09T03:13:26;96425.22;;;12.04;100.00
28927;BME280;16038;47.692;9.400;2022-09-09T03:15:52;96426.47;;;12.14;100.00
28927;BME280;16038;47.692;9.400;2022-09-09T03:18:17;96435.13;;;12.23;100.00
28927;BME280;16038;47.692;9.400;2022-09-09T03:20:43;96439.03;;;12.19;100.00
28927;BME280;16038;47.692;9.400;2022-09-09T03:23:08;96434.72;;;12.18;100.00
28927;BME280;16038;47.692;9.400;2022-09-09T03:25:34;96437.47;;;12.18;100.00
28927;BME280;16038;47.692;9.400;2022-09-09T03:28:00;96433.06;;;12.06;100.00
28927;BME280;16038;47.692;9.400;2022-09-09T03:30:27;96444.78;;;11.96;100.00
28927;BME280;16038;47.692;9.400;2022-09-09T03:32:52;96446.78;;;12.06;100.00
28927;BME280;16038;47.692;9.400;2022-09-09T03:35:18;96444.47;;;12.12;100.00
28927;BME280;16038;47.692;9.400;2022-09-09T03:37:44;96441.28;;;12.02;100.00
28927;BME280;16038;47.692;9.400;2022-09-09T03:40:11;96442.16;;;12.17;100.00
28927;BME280;16038;47.692;9.400;2022-09-09T03:42:37;96438.63;;;12.17;100.00
28927;BME280;16038;47.692;9.400;2022-09-09T03:45:07;96441.69;;;12.08;100.00
28927;BME280;16038;47.692;9.400;2022-09-09T03:47:34;96445.75;;;12.29;100.00
28927;BME280;16038;47.692;9.400;2022-09-09T03:49:59;96440.31;;;12.36;100.00
28927;BME280;16038;47.692;9.400;2022-09-09T03:52:25;96438.38;;;12.47;100.00
28927;BME280;16038;47.692;9.400;2022-09-09T03:54:52;96439.19;;;12.51;100.00
28927;BME280;16038;47.692;9.400;2022-09-09T03:57:18;96457.34;;;12.70;100.00
28927;BME280;16038;47.692;9.400;2022-09-09T03:59:44;96453.47;;;12.82;100.00
28927;BME280;16038;47.692;9.400;2022-09-09T04:02:09;96459.38;;;12.91;100.00
28927;BME280;16038;47.692;9.400;2022-09-09T04:04:35;96457.41;;;12.88;100.00
28927;BME280;16038;47.692;9.400;2022-09-09T04:07:00;96463.28;;;12.90;100.00
28927;BME280;16038;47.692;9.400;2022-09-09T04:09:26;96454.69;;;13.03;100.00
28927;BME280;16038;47.692;9.400;2022-09-09T04:11:52;96459.44;;;13.06;100.00
28927;BME280;16038;47.692;9.400;2022-09-09T04:14:19;96446.09;;;13.22;100.00
28927;BME280;16038;47.692;9.400;2022-09-09T04:16:44;96444.56;;;13.32;100.00
28927;BME280;16038;47.692;9.400;2022-09-09T04:19:11;96449.69;;;13.44;100.00
28927;BME280;16038;47.692;9.400;2022-09-09T04:21:39;96441.06;;;13.49;100.00
28927;BME280;16038;47.692;9.400;2022-09-09T04:24:05;96440.28;;;13.52;100.00
28927;BME280;16038;47.692;9.400;2022-09-09T04:26:31;96439.47;;;13.59;100.00
28927;BME280;16038;47.692;9.400;2022-09-09T04:28:56;96438.72;;;13.69;100.00
28927;BME280;16038;47.692;9.400;2022-09-09T04:31:22;96441.84;;;13.71;100.00
28927;BME280;16038;47.692;9.400;2022-09-09T04:33:51;96441.84;;;13.71;100.00
28927;BME280;16038;47.692;9.400;2022-09-09T04:36:17;96444.22;;;13.69;100.00
28927;BME280;16038;47.692;9.400;2022-09-09T04:38:46;96448.13;;;13.68;100.00
28927;BME280;16038;47.692;9.400;2022-09-09T04:41:14;96446.97;;;13.76;100.00
28927;BME280;16038;47.692;9.400;2022-09-09T04:43:40;96446.19;;;13.80;100.00
28927;BME280;16038;47.692;9.400;2022-09-09T04:46:06;96442.63;;;13.90;100.00
28927;BME280;16038;47.692;9.400;2022-09-09T04:48:31;96438.69;;;13.94;100.00
28927;BME280;16038;47.692;9.400;2022-09-09T04:50:58;96439.09;;;13.86;100.00
28927;BME280;16038;47.692;9.400;2022-09-09T04:53:24;96441.44;;;13.87;100.00
28927;BME280;16038;47.692;9.400;2022-09-09T04:55:51;96453.22;;;13.91;100.00
28927;BME280;16038;47.692;9.400;2022-09-09T04:58:17;96455.97;;;13.99;100.00
28927;BME280;16038;47.692;9.400;2022-09-09T05:00:43;96455.59;;;14.11;100.00
28927;BME280;16038;47.692;9.400;2022-09-09T05:03:09;96454.41;;;14.19;100.00
28927;BME280;16038;47.692;9.400;2022-09-09T05:05:35;96459.09;;;14.19;100.00
28927;BME280;16038;47.692;9.400;2022-09-09T05:08:04;96452.44;;;14.20;100.00
28927;BME280;16038;47.692;9.400;2022-09-09T05:10:32;96458.31;;;14.18;100.00
28927;BME280;16038;47.692;9.400;2022-09-09T05:12:57;96465.03;;;14.21;100.00
28927;BME280;16038;47.692;9.400;2022-09-09T05:15:23;96465.41;;;14.19;100.00
28927;BME280;16038;47.692;9.400;2022-09-09T05:17:48;96465.81;;;14.03;100.00
28927;BME280;16038;47.692;9.400;2022-09-09T05:20:14;96461.09;;;14.07;100.00
28927;BME280;16038;47.692;9.400;2022-09-09T05:22:39;96459.91;;;14.19;100.00
28927;BME280;16038;47.692;9.400;2022-09-09T05:25:06;96463.47;;;14.02;100.00
28927;BME280;16038;47.692;9.400;2022-09-09T05:27:35;96469.38;;;14.00;100.00
28927;BME280;16038;47.692;9.400;2022-09-09T05:30:01;96463.84;;;14.14;100.00
28927;BME280;16038;47.692;9.400;2022-09-09T05:32:27;96465.03;;;14.13;100.00
28927;BME280;16038;47.692;9.400;2022-09-09T05:34:55;96473.31;;;14.13;100.00
28927;BME280;16038;47.692;9.400;2022-09-09T05:37:21;96472.50;;;14.17;100.00
28927;BME280;16038;47.692;9.400;2022-09-09T05:39:48;96471.69;;;14.23;100.00
28927;BME280;16038;47.692;9.400;2022-09-09T05:42:14;96467.34;;;14.33;100.00
28927;BME280;16038;47.692;9.400;2022-09-09T05:44:39;96477.59;;;14.22;100.00
28927;BME280;16038;47.692;9.400;2022-09-09T05:47:05;96477.59;;;14.14;100.00
28927;BME280;16038;47.692;9.400;2022-09-09T05:49:31;96482.75;;;13.98;100.00
28927;BME280;16038;47.692;9.400;2022-09-09T05:51:57;96481.97;;;13.94;100.00
28927;BME280;16038;47.692;9.400;2022-09-09T05:54:22;96486.66;;;13.86;100.00
28927;BME280;16038;47.692;9.400;2022-09-09T05:56:48;96493.75;;;13.73;100.00
28927;BME280;16038;47.692;9.400;2022-09-09T05:59:15;96487.44;;;13.54;100.00
28927;BME280;16038;47.692;9.400;2022-09-09T06:01:41;96493.72;;;13.51;100.00
28927;BME280;16038;47.692;9.400;2022-09-09T06:04:07;96487.84;;;13.53;100.00
28927;BME280;16038;47.692;9.400;2022-09-09T06:06:35;96497.66;;;13.61;100.00
28927;BME280;16038;47.692;9.400;2022-09-09T06:09:02;96488.22;;;13.62;100.00
28927;BME280;16038;47.692;9.400;2022-09-09T06:11:31;96496.88;;;13.75;100.00
28927;BME280;16038;47.692;9.400;2022-09-09T06:13:57;96502.78;;;13.66;100.00
28927;BME280;16038;47.692;9.400;2022-09-09T06:16:25;96502.00;;;13.62;100.00
28927;BME280;16038;47.692;9.400;2022-09-09T06:18:55;96511.03;;;13.63;100.00
28927;BME280;16038;47.692;9.400;2022-09-09T06:21:26;96507.13;;;13.67;100.00
28927;BME280;16038;47.692;9.400;2022-09-09T06:23:52;96500.44;;;13.86;100.00
28927;BME280;16038;47.692;9.400;2022-09-09T06:26:23;96497.69;;;13.97;100.00
28927;BME280;16038;47.692;9.400;2022-09-09T06:28:50;96502.00;;;14.09;100.00
28927;BME280;16038;47.692;9.400;2022-09-09T06:31:19;96496.47;;;14.27;100.00
28927;BME280;16038;47.692;9.400;2022-09-09T06:33:50;96491.75;;;14.31;100.00
28927;BME280;16038;47.692;9.400;2022-09-09T06:36:18;96501.97;;;14.34;100.00
28927;BME280;16038;47.692;9.400;2022-09-09T06:38:44;96496.06;;;14.46;100.00
28927;BME280;16038;47.692;9.400;2022-09-09T06:41:13;96498.41;;;14.62;100.00
28927;BME280;16038;47.692;9.400;2022-09-09T06:43:39;96493.69;;;14.63;100.00
28927;BME280;16038;47.692;9.400;2022-09-09T06:46:12;96493.69;;;14.45;100.00
28927;BME280;16038;47.692;9.400;2022-09-09T06:48:41;96498.03;;;14.42;100.00
28927;BME280;16038;47.692;9.400;2022-09-09T06:53:37;96496.44;;;14.48;100.00
28927;BME280;16038;47.692;9.400;2022-09-09T06:56:25;96498.41;;;14.51;100.00
28927;BME280;16038;47.692;9.400;2022-09-09T06:58:53;96497.59;;;14.54;100.00
28927;BME280;16038;47.692;9.400;2022-09-09T07:01:22;96498.78;;;14.71;100.00
28927;BME280;16038;47.692;9.400;2022-09-09T07:03:50;96509.03;;;14.60;100.00
28927;BME280;16038;47.692;9.400;2022-09-09T07:06:30;96509.81;;;14.71;100.00
28927;BME280;16038;47.692;9.400;2022-09-09T07:08:56;96510.56;;;14.83;100.00
28927;BME280;16038;47.692;9.400;2022-09-09T07:11:25;96507.81;;;14.72;100.00
28927;BME280;16038;47.692;9.400;2022-09-09T07:13:54;96500.75;;;14.57;100.00
28927;BME280;16038;47.692;9.400;2022-09-09T07:16:21;96499.97;;;14.52;100.00
28927;BME280;16038;47.692;9.400;2022-09-09T07:18:49;96497.22;;;14.60;100.00
28927;BME280;16038;47.692;9.400;2022-09-09T07:21:16;96493.28;;;14.57;100.00
28927;BME280;16038;47.692;9.400;2022-09-09T07:23:42;96499.19;;;14.48;100.00
28927;BME280;16038;47.692;9.400;2022-09-09T07:26:15;96494.09;;;14.47;100.00
28927;BME280;16038;47.692;9.400;2022-09-09T07:28:42;96498.03;;;14.42;100.00
28927;BME280;16038;47.692;9.400;2022-09-09T07:31:16;96500.00;;;14.38;100.00
28927;BME280;16038;47.692;9.400;2022-09-09T07:33:43;96509.00;;;14.53;100.00
28927;BME280;16038;47.692;9.400;2022-09-09T07:36:17;96513.34;;;14.72;100.00
28927;BME280;16038;47.692;9.400;2022-09-09T07:38:45;96508.19;;;14.78;100.00
28927;BME280;16038;47.692;9.400;2022-09-09T07:41:15;96505.06;;;14.76;100.00
28927;BME280;16038;47.692;9.400;2022-09-09T07:43:41;96498.75;;;14.79;100.00
28927;BME280;16038;47.692;9.400;2022-09-09T07:46:08;96507.75;;;14.97;100.00
28927;BME280;16038;47.692;9.400;2022-09-09T07:48:34;96504.16;;;15.07;100.00
28927;BME280;16038;47.692;9.400;2022-09-09T07:51:11;96509.66;;;15.11;100.00
28927;BME280;16038;47.692;9.400;2022-09-09T07:53:39;96517.50;;;15.20;100.00
28927;BME280;16038;47.692;9.400;2022-09-09T07:56:10;96514.16;;;15.50;100.00
28927;BME280;16038;47.692;9.400;2022-09-09T07:58:38;96519.09;;;15.88;100.00
28927;BME280;16038;47.692;9.400;2022-09-09T08:01:08;96516.13;;;16.13;100.00
28927;BME280;16038;47.692;9.400;2022-09-09T08:03:34;96517.97;;;16.27;100.00
28927;BME280;16038;47.692;9.400;2022-09-09T08:06:05;96515.94;;;16.34;100.00
28927;BME280;16038;47.692;9.400;2022-09-09T08:08:33;96519.28;;;16.11;100.00
28927;BME280;16038;47.692;9.400;2022-09-09T08:11:17;96520.06;;;15.59;100.00
28927;BME280;16038;47.692;9.400;2022-09-09T08:13:43;96521.97;;;15.66;100.00
28927;BME280;16038;47.692;9.400;2022-09-09T08:16:11;96528.91;;;15.96;100.00
28927;BME280;16038;47.692;9.400;2022-09-09T08:18:37;96521.25;;;16.14;100.00
28927;BME280;16038;47.692;9.400;2022-09-09T08:21:16;96520.88;;;16.12;100.00
28927;BME280;16038;47.692;9.400;2022-09-09T08:23:44;96536.78;;;16.42;100.00
28927;BME280;16038;47.692;9.400;2022-09-09T08:26:14;96537.47;;;16.95;100.00
28927;BME280;16038;47.692;9.400;2022-09-09T08:28:40;96530.41;;;16.91;100.00
28927;BME280;16038;47.692;9.400;2022-09-09T08:33:32;96541.75;;;18.87;100.00
28927;BME280;16038;47.692;9.400;2022-09-09T08:35:58;96541.63;;;20.56;100.00
28927;BME280;16038;47.692;9.400;2022-09-09T08:38:24;96541.22;;;21.46;100.00
28927;BME280;16038;47.692;9.400;2022-09-09T08:40:53;96551.72;;;21.93;100.00
28927;BME280;16038;47.692;9.400;2022-09-09T08:43:27;96551.75;;;22.79;97.58
28927;BME280;16038;47.692;9.400;2022-09-09T08:46:09;96550.28;;;22.87;96.24
28927;BME280;16038;47.692;9.400;2022-09-09T08:51:13;96557.16;;;22.61;98.35
28927;BME280;16038;47.692;9.400;2022-09-09T08:53:45;96555.41;;;22.89;100.00
28927;BME280;16038;47.692;9.400;2022-09-09T08:56:21;96556.31;;;22.86;92.76
28927;BME280;16038;47.692;9.400;2022-09-09T08:58:51;96552.94;;;22.91;93.01
28927;BME280;16038;47.692;9.400;2022-09-09T09:11:47;96544.47;;;22.47;95.92
28927;BME280;16038;47.692;9.400;2022-09-09T09:14:43;96543.25;;;22.83;89.02
28927;BME280;16038;47.692;9.400;2022-09-09T09:17:18;96544.44;;;23.83;83.47
28927;BME280;16038;47.692;9.400;2022-09-09T09:19:45;96544.09;;;24.62;79.27
28927;BME280;16038;47.692;9.400;2022-09-09T09:22:17;96542.03;;;25.73;75.23
28927;BME280;16038;47.692;9.400;2022-09-09T09:27:32;96555.84;;;26.86;64.02
28927;BME280;16038;47.692;9.400;2022-09-09T09:30:11;96558.88;;;27.37;57.77
28927;BME280;16038;47.692;9.400;2022-09-09T09:32:49;96557.34;;;26.73;59.87
28927;BME280;16038;47.692;9.400;2022-09-09T09:35:17;96553.47;;;25.33;64.15
28927;BME280;16038;47.692;9.400;2022-09-09T09:37:42;96549.00;;;21.09;86.92
28927;BME280;16038;47.692;9.400;2022-09-09T09:40:20;96539.38;;;21.39;84.17
28927;BME280;16038;47.692;9.400;2022-09-09T09:42:53;96545.91;;;21.19;86.56
28927;BME280;16038;47.692;9.400;2022-09-09T09:45:27;96543.28;;;20.37;90.74
28927;BME280;16038;47.692;9.400;2022-09-09T09:48:01;96546.47;;;20.52;92.49
28927;BME280;16038;47.692;9.400;2022-09-09T09:50:27;96540.56;;;20.67;89.40
28927;BME280;16038;47.692;9.400;2022-09-09T09:52:54;96538.34;;;20.91;88.58
28927;BME280;16038;47.692;9.400;2022-09-09T09:55:21;96543.22;;;21.16;88.00
28927;BME280;16038;47.692;9.400;2022-09-09T09:57:48;96551.94;;;20.89;84.50
28927;BME280;16038;47.692;9.400;2022-09-09T10:00:14;96550.66;;;20.60;86.89
28927;BME280;16038;47.692;9.400;2022-09-09T10:02:43;96547.63;;;20.71;86.98
28927;BME280;16038;47.692;9.400;2022-09-09T10:05:30;96542.63;;;20.79;86.66
28927;BME280;16038;47.692;9.400;2022-09-09T10:08:05;96545.31;;;20.83;86.62
28927;BME280;16038;47.692;9.400;2022-09-09T10:13:31;96543.72;;;20.98;85.55
28927;BME280;16038;47.692;9.400;2022-09-09T10:18:59;96526.97;;;20.85;85.95
28927;BME280;16038;47.692;9.400;2022-09-09T10:21:29;96533.13;;;20.93;80.36
28927;BME280;16038;47.692;9.400;2022-09-09T10:34:57;96521.38;;;22.46;71.99
28927;BME280;16038;47.692;9.400;2022-09-09T10:43:13;96519.16;;;21.51;78.51
28927;BME280;16038;47.692;9.400;2022-09-09T10:56:26;96518.47;;;20.76;82.45
28927;BME280;16038;47.692;9.400;2022-09-09T10:59:04;96511.69;;;20.77;81.24
28927;BME280;16038;47.692;9.400;2022-09-09T11:01:47;96510.63;;;20.87;83.05
28927;BME280;16038;47.692;9.400;2022-09-09T11:04:22;96518.91;;;21.04;82.87
28927;BME280;16038;47.692;9.400;2022-09-09T11:06:54;96519.84;;;20.84;83.55
28927;BME280;16038;47.692;9.400;2022-09-09T11:09:23;96515.28;;;21.19;80.59
28927;BME280;16038;47.692;9.400;2022-09-09T11:11:54;96511.81;;;21.57;78.88
28927;BME280;16038;47.692;9.400;2022-09-09T11:14:33;96522.63;;;21.94;78.08
28927;BME280;16038;47.692;9.400;2022-09-09T11:17:45;96515.25;;;21.49;79.38
28927;BME280;16038;47.692;9.400;2022-09-09T11:20:12;96513.06;;;20.85;85.50
28927;BME280;16038;47.692;9.400;2022-09-09T11:23:15;96503.38;;;20.44;95.86
28927;BME280;16038;47.692;9.400;2022-09-09T11:25:48;96512.84;;;20.47;97.99
28927;BME280;16038;47.692;9.400;2022-09-09T11:40:28;96513.31;;;20.12;100.00
28927;BME280;16038;47.692;9.400;2022-09-09T11:43:21;96513.34;;;19.39;100.00
28927;BME280;16038;47.692;9.400;2022-09-09T11:45:54;96514.38;;;19.09;100.00
28927;BME280;16038;47.692;9.400;2022-09-09T11:51:04;96519.47;;;19.51;100.00
28927;BME280;16038;47.692;9.400;2022-09-09T11:53:33;96531.28;;;19.71;100.00
28927;BME280;16038;47.692;9.400;2022-09-09T11:56:44;96524.63;;;19.68;100.00
28927;BME280;16038;47.692;9.400;2022-09-09T11:58:56;96521.88;;;19.85;100.00
28927;BME280;16038;47.692;9.400;2022-09-09T12:12:29;96513.97;;;19.83;100.00
28927;BME280;16038;47.692;9.400;2022-09-09T12:17:44;96504.94;;;19.79;100.00
28927;BME280;16038;47.692;9.400;2022-09-09T12:31:15;96516.03;;;20.78;83.75
28927;BME280;16038;47.692;9.400;2022-09-09T12:33:45;96505.47;;;21.15;77.17
28927;BME280;16038;47.692;9.400;2022-09-09T12:36:16;96507.91;;;22.06;74.13
28927;BME280;16038;47.692;9.400;2022-09-09T12:38:43;96505.69;;;21.88;71.90
28927;BME280;16038;47.692;9.400;2022-09-09T12:41:23;96513.16;;;22.04;69.07
28927;BME280;16038;47.692;9.400;2022-09-09T12:43:49;96504.97;;;22.23;64.19
28927;BME280;16038;47.692;9.400;2022-09-09T12:48:52;96493.06;;;21.84;61.28
28927;BME280;16038;47.692;9.400;2022-09-09T12:51:32;96482.59;;;21.62;64.78
28927;BME280;16038;47.692;9.400;2022-09-09T12:53:58;96478.59;;;21.63;67.91
28927;BME280;16038;47.692;9.400;2022-09-09T12:56:27;96471.41;;;21.24;65.82
28927;BME280;16038;47.692;9.400;2022-09-09T12:58:55;96470.72;;;21.19;70.22
28927;BME280;16038;47.692;9.400;2022-09-09T13:01:26;96474.09;;;21.40;66.38
28927;BME280;16038;47.692;9.400;2022-09-09T13:03:54;96473.78;;;21.51;65.22
28927;BME280;16038;47.692;9.400;2022-09-09T13:06:20;96466.81;;;21.30;66.07
28927;BME280;16038;47.692;9.400;2022-09-09T13:08:48;96461.13;;;21.08;68.29
28927;BME280;16038;47.692;9.400;2022-09-09T13:11:17;96466.81;;;21.17;66.60
28927;BME280;16038;47.692;9.400;2022-09-09T13:13:50;96463.75;;;20.98;67.30
28927;BME280;16038;47.692;9.400;2022-09-09T13:16:27;96457.09;;;20.96;66.72
28927;BME280;16038;47.692;9.400;2022-09-09T13:18:59;96452.31;;;21.09;69.17
28927;BME280;16038;47.692;9.400;2022-09-09T13:21:36;96457.03;;;21.38;66.04
28927;BME280;16038;47.692;9.400;2022-09-09T13:24:04;96446.88;;;21.44;65.49
28927;BME280;16038;47.692;9.400;2022-09-09T13:26:34;96433.09;;;21.53;63.76
28927;BME280;16038;47.692;9.400;2022-09-09T13:29:18;96436.47;;;21.48;68.04
28927;BME280;16038;47.692;9.400;2022-09-09T13:31:44;96436.09;;;21.46;65.94
28927;BME280;16038;47.692;9.400;2022-09-09T13:34:12;96438.41;;;21.35;65.71
28927;BME280;16038;47.692;9.400;2022-09-09T13:36:38;96436.59;;;21.03;68.47
28927;BME280;16038;47.692;9.400;2022-09-09T13:39:04;96432.69;;;20.87;65.66
28927;BME280;16038;47.692;9.400;2022-09-09T13:41:36;96428.09;;;20.80;69.52
28927;BME280;16038;47.692;9.400;2022-09-09T13:44:19;96420.22;;;21.05;70.10
28927;BME280;16038;47.692;9.400;2022-09-09T13:46:45;96429.69;;;20.94;67.10
28927;BME280;16038;47.692;9.400;2022-09-09T13:54:09;96414.16;;;20.68;68.25
28927;BME280;16038;47.692;9.400;2022-09-09T13:56:37;96410.00;;;20.43;69.23
28927;BME280;16038;47.692;9.400;2022-09-09T13:59:06;96417.53;;;20.30;70.04
28927;BME280;16038;47.692;9.400;2022-09-09T14:01:33;96403.28;;;20.28;72.96
28927;BME280;16038;47.692;9.400;2022-09-09T14:04:00;96410.53;;;20.38;69.98
28927;BME280;16038;47.692;9.400;2022-09-09T14:06:25;96407.63;;;20.29;71.68
28927;BME280;16038;47.692;9.400;2022-09-09T14:08:51;96411.53;;;20.31;73.45
28927;BME280;16038;47.692;9.400;2022-09-09T14:11:18;96410.09;;;20.10;75.06
28927;BME280;16038;47.692;9.400;2022-09-09T14:13:43;96412.94;;;20.23;75.03
28927;BME280;16038;47.692;9.400;2022-09-09T14:16:09;96399.75;;;20.11;79.27
28927;BME280;16038;47.692;9.400;2022-09-09T14:18:35;96400.63;;;20.08;84.12
28927;BME280;16038;47.692;9.400;2022-09-09T14:21:01;96400.34;;;20.18;89.84
28927;BME280;16038;47.692;9.400;2022-09-09T14:23:27;96397.69;;;19.98;88.21
28927;BME280;16038;47.692;9.400;2022-09-09T14:25:55;96397.59;;;19.69;90.76
28927;BME280;16038;47.692;9.400;2022-09-09T14:28:20;96400.38;;;19.53;90.99
28927;BME280;16038;47.692;9.400;2022-09-09T14:30:46;96400.19;;;19.43;89.57
28927;BME280;16038;47.692;9.400;2022-09-09T14:33:14;96396.66;;;19.59;86.66
28927;BME280;16038;47.692;9.400;2022-09-09T14:35:40;96399.34;;;19.63;89.34
28927;BME280;16038;47.692;9.400;2022-09-09T14:38:07;96407.41;;;19.57;87.98
28927;BME280;16038;47.692;9.400;2022-09-09T14:40:35;96397.75;;;19.62;89.87
28927;BME280;16038;47.692;9.400;2022-09-09T14:43:00;96404.03;;;19.99;87.94
28927;BME280;16038;47.692;9.400;2022-09-09T14:45:27;96386.78;;;20.20;87.76
28927;BME280;16038;47.692;9.400;2022-09-09T14:47:53;96385.16;;;20.07;86.27
28927;BME280;16038;47.692;9.400;2022-09-09T14:50:20;96397.25;;;19.83;82.95
28927;BME280;16038;47.692;9.400;2022-09-09T14:52:46;96395.59;;;19.86;82.45
28927;BME280;16038;47.692;9.400;2022-09-09T14:55:12;96396.38;;;20.03;83.41
28927;BME280;16038;47.692;9.400;2022-09-09T14:57:38;96400.03;;;20.00;82.21
28927;BME280;16038;47.692;9.400;2022-09-09T15:00:06;96395.78;;;19.95;83.54
28927;BME280;16038;47.692;9.400;2022-09-09T15:02:33;96393.63;;;19.86;85.24
28927;BME280;16038;47.692;9.400;2022-09-09T15:04:58;96399.63;;;19.85;86.31
28927;BME280;16038;47.692;9.400;2022-09-09T15:07:24;96404.56;;;19.77;84.23
28927;BME280;16038;47.692;9.400;2022-09-09T15:09:50;96404.50;;;19.81;83.13
28927;BME280;16038;47.692;9.400;2022-09-09T15:12:18;96399.63;;;19.85;80.39
28927;BME280;16038;47.692;9.400;2022-09-09T15:14:44;96394.06;;;19.85;81.71
28927;BME280;16038;47.692;9.400;2022-09-09T15:17:10;96392.91;;;19.99;81.86